Time;durP1;ratioP1;P1;durP2;ratioP2;P2;SDS_P1;SDS_P2;PMS_P1;PMS_P2;Temp;Humidity;BMP_temperature;BMP_pressure;BME280_temperature;BME280_humidity;BME280_pressure;Samples;Min_cycle;Max_cycle;Signal;HPM_P1;HPM_P2
2021/08/12 00:01:22;;;;;;;;;;;16.00;99.90;;;;;;1922190;74;20166;-66
2021/08/12 00:03:49;;;;;;;;;;;16.10;99.90;;;;;;2005946;71;20188;-66
2021/08/12 00:06:16;;;;;;;;;;;16.00;99.90;;;;;;2005999;71;20160;-66
2021/08/12 00:08:43;;;;;;;;;;;16.00;99.90;;;;;;2005759;71;20172;-66
2021/08/12 00:11:10;;;;;;;;;;;16.00;99.90;;;;;;2005949;71;20145;-66
2021/08/12 00:13:37;;;;;;;;;;;15.90;99.90;;;;;;2005899;71;20168;-66
2021/08/12 00:16:04;;;;;;;;;;;15.90;99.90;;;;;;2005957;71;20203;-66
2021/08/12 00:18:31;;;;;;;;;;;15.80;99.90;;;;;;2005814;71;20508;-66
2021/08/12 00:20:58;;;;;;;;;;;15.90;99.90;;;;;;2005956;71;20156;-66
2021/08/12 00:23:27;;;;;;;;;;;15.90;99.90;;;;;;2005902;71;20110;-66
2021/08/12 00:25:56;;;;;;;;;;;15.80;99.90;;;;;;2006028;71;20160;-66
2021/08/12 00:28:22;;;;;;;;;;;15.80;99.90;;;;;;2000239;71;20223;-66
2021/08/12 00:30:49;;;;;;;;;;;15.80;99.90;;;;;;1996711;72;20113;-66
2021/08/12 00:33:16;;;;;;;;;;;15.80;99.90;;;;;;1996599;72;20199;-66
2021/08/12 00:35:43;;;;;;;;;;;15.80;99.90;;;;;;1996848;72;20163;-66
2021/08/12 00:38:10;;;;;;;;;;;15.80;99.90;;;;;;2001397;71;20919;-66
2021/08/12 00:40:38;;;;;;;;;;;15.90;99.90;;;;;;2006333;71;20171;-66
2021/08/12 00:43:05;;;;;;;;;;;15.80;99.90;;;;;;2006194;71;20444;-66
2021/08/12 00:45:31;;;;;;;;;;;15.80;99.90;;;;;;2006583;71;20153;-66
2021/08/12 00:47:58;;;;;;;;;;;15.70;99.90;;;;;;2005682;71;20465;-66
2021/08/12 00:50:25;;;;;;;;;;;15.60;99.90;;;;;;2006171;71;20172;-66
2021/08/12 00:52:52;;;;;;;;;;;15.60;99.90;;;;;;2006077;71;20203;-66
2021/08/12 00:55:19;;;;;;;;;;;15.70;99.90;;;;;;2006213;71;20175;-66
2021/08/12 00:57:46;;;;;;;;;;;15.70;99.90;;;;;;2003140;71;20151;-66
2021/08/12 01:00:15;;;;;;;;;;;15.70;99.90;;;;;;1996728;72;20172;-66
2021/08/12 01:02:42;;;;;;;;;;;15.70;99.90;;;;;;1996735;72;20498;-66
2021/08/12 01:05:10;;;;;;;;;;;15.70;99.90;;;;;;1996756;72;20176;-66
2021/08/12 01:07:41;;;;;;;;;;;15.70;99.90;;;;;;1999000;71;20836;-66
2021/08/12 01:10:09;;;;;;;;;;;15.70;99.90;;;;;;2005569;71;20108;-66
2021/08/12 01:12:38;;;;;;;;;;;15.80;99.90;;;;;;2006277;71;20160;-66
2021/08/12 01:15:09;;;;;;;;;;;15.80;99.90;;;;;;2000686;71;20156;-66
2021/08/12 01:17:47;;;;;;;;;;;15.80;99.90;;;;;;1996530;72;20198;-66
2021/08/12 01:20:15;;;;;;;;;;;15.80;99.90;;;;;;1996277;72;20469;-66
2021/08/12 01:22:43;;;;;;;;;;;15.80;99.90;;;;;;1977673;71;20176;-65
2021/08/12 01:25:12;;;;;;;;;;;15.80;99.90;;;;;;2005579;71;20460;-66
2021/08/12 01:27:40;;;;;;;;;;;15.70;99.90;;;;;;2003126;71;20168;-65
2021/08/12 01:30:12;;;;;;;;;;;15.60;99.90;;;;;;2006031;71;20203;-66
2021/08/12 01:32:58;;;;;;;;;;;15.50;99.90;;;;;;2007042;71;20390;-65
2021/08/12 01:35:26;;;;;;;;;;;15.50;99.90;;;;;;2006411;71;20105;-66
2021/08/12 01:37:54;;;;;;;;;;;15.50;99.90;;;;;;2007021;71;20194;-66
2021/08/12 01:40:22;;;;;;;;;;;15.60;99.90;;;;;;2006793;71;20415;-65
2021/08/12 01:42:50;;;;;;;;;;;15.70;99.90;;;;;;2006729;71;20108;-66
2021/08/12 01:45:17;;;;;;;;;;;15.70;99.90;;;;;;2005933;71;20172;-65
2021/08/12 01:47:45;;;;;;;;;;;15.70;99.90;;;;;;2006249;71;20167;-65
2021/08/12 01:50:14;;;;;;;;;;;15.60;99.90;;;;;;2006135;71;20188;-66
2021/08/12 01:52:42;;;;;;;;;;;15.50;99.90;;;;;;2006102;71;20475;-66
2021/08/12 01:55:10;;;;;;;;;;;15.40;99.90;;;;;;2001582;71;20438;-66
2021/08/12 01:57:38;;;;;;;;;;;15.40;99.90;;;;;;1996754;72;20169;-66
2021/08/12 02:00:06;;;;;;;;;;;15.40;99.90;;;;;;1996714;72;20164;-66
2021/08/12 02:02:34;;;;;;;;;;;15.40;99.90;;;;;;1996738;72;20287;-66
2021/08/12 02:05:02;;;;;;;;;;;15.50;99.90;;;;;;2005812;71;20218;-66
2021/08/12 02:07:29;;;;;;;;;;;15.40;99.90;;;;;;2006201;71;20163;-66
2021/08/12 02:09:56;;;;;;;;;;;15.40;99.90;;;;;;2006199;71;20172;-66
2021/08/12 02:12:23;;;;;;;;;;;15.50;99.90;;;;;;2006192;71;20271;-67
2021/08/12 02:14:49;;;;;;;;;;;15.50;99.90;;;;;;2005981;71;20210;-66
2021/08/12 02:17:16;;;;;;;;;;;15.50;99.90;;;;;;2006192;71;20148;-66
2021/08/12 02:19:43;;;;;;;;;;;15.50;99.90;;;;;;2006063;71;20163;-66
2021/08/12 02:22:24;;;;;;;;;;;15.50;99.90;;;;;;2006018;71;20164;-67
2021/08/12 02:24:58;;;;;;;;;;;15.50;99.90;;;;;;2005831;71;20143;-66
2021/08/12 02:27:25;;;;;;;;;;;15.50;99.90;;;;;;2006321;71;20343;-66
2021/08/12 02:29:54;;;;;;;;;;;15.50;99.90;;;;;;2005994;71;20460;-66
2021/08/12 02:32:22;;;;;;;;;;;15.60;99.90;;;;;;2006134;71;20148;-66
2021/08/12 02:34:50;;;;;;;;;;;15.50;99.90;;;;;;2003349;71;20101;-66
2021/08/12 02:37:18;;;;;;;;;;;15.60;99.90;;;;;;1996878;72;20152;-66
2021/08/12 02:39:45;;;;;;;;;;;15.50;99.90;;;;;;1987947;72;20188;-73
2021/08/12 02:42:13;;;;;;;;;;;15.70;99.90;;;;;;1924600;73;20474;-72
2021/08/12 02:44:41;;;;;;;;;;;15.70;99.90;;;;;;1917353;73;20532;-72
2021/08/12 02:47:08;;;;;;;;;;;15.80;99.90;;;;;;1889755;74;20167;-72
2021/08/12 02:49:39;;;;;;;;;;;15.70;99.90;;;;;;1916301;73;20153;-72
2021/08/12 02:52:07;;;;;;;;;;;15.70;99.90;;;;;;1903122;73;20468;-72
2021/08/12 02:54:35;;;;;;;;;;;15.70;99.90;;;;;;1885161;75;20368;-72
2021/08/12 02:57:02;;;;;;;;;;;15.70;99.90;;;;;;1878827;75;20490;-72
2021/08/12 02:59:29;;;;;;;;;;;15.70;99.90;;;;;;1879743;75;21181;-72
2021/08/12 03:01:56;;;;;;;;;;;15.70;99.90;;;;;;1895926;73;20202;-72
2021/08/12 03:04:23;;;;;;;;;;;15.70;99.90;;;;;;1880384;75;20152;-72
2021/08/12 03:06:52;;;;;;;;;;;15.60;99.90;;;;;;1883096;76;20523;-72
2021/08/12 03:09:20;;;;;;;;;;;15.60;99.90;;;;;;1875089;75;20190;-72
2021/08/12 03:11:47;;;;;;;;;;;15.50;99.90;;;;;;1881749;75;20220;-72
2021/08/12 03:14:15;;;;;;;;;;;15.50;99.90;;;;;;1873865;75;20175;-72
2021/08/12 03:16:41;;;;;;;;;;;15.50;99.90;;;;;;1916637;73;20150;-72
2021/08/12 03:19:08;;;;;;;;;;;15.50;99.90;;;;;;1880730;76;20461;-72
2021/08/12 03:21:35;;;;;;;;;;;15.40;99.90;;;;;;1880197;75;20155;-72
2021/08/12 03:24:04;;;;;;;;;;;15.40;99.90;;;;;;1883021;76;20198;-72
2021/08/12 03:26:31;;;;;;;;;;;15.40;99.90;;;;;;1880902;75;20242;-72
2021/08/12 03:28:58;;;;;;;;;;;15.50;99.90;;;;;;1877753;76;20278;-72
2021/08/12 03:31:25;;;;;;;;;;;15.50;99.90;;;;;;1886107;75;20179;-72
2021/08/12 03:33:52;;;;;;;;;;;15.50;99.90;;;;;;1873218;76;20164;-72
2021/08/12 03:36:19;;;;;;;;;;;15.50;99.90;;;;;;1890956;75;20512;-72
2021/08/12 03:38:46;;;;;;;;;;;15.60;99.90;;;;;;1879503;76;20292;-72
2021/08/12 03:41:13;;;;;;;;;;;15.80;99.90;;;;;;1884298;75;20163;-72
2021/08/12 03:43:39;;;;;;;;;;;15.90;99.90;;;;;;1872431;75;20532;-72
2021/08/12 03:46:06;;;;;;;;;;;15.90;99.90;;;;;;1885476;75;20109;-72
2021/08/12 03:48:33;;;;;;;;;;;15.70;99.90;;;;;;1884270;76;20623;-72
2021/08/12 03:51:00;;;;;;;;;;;15.70;99.90;;;;;;1876644;75;20183;-72
2021/08/12 03:53:27;;;;;;;;;;;15.70;99.90;;;;;;1877142;75;20514;-71
2021/08/12 03:55:59;;;;;;;;;;;15.90;99.90;;;;;;1888269;74;20179;-72
2021/08/12 03:58:22;;;;;;;;;;;15.80;99.90;;;;;;1877841;75;20183;-72
2021/08/12 04:00:49;;;;;;;;;;;15.70;99.90;;;;;;1867331;75;20177;-72
2021/08/12 04:03:15;;;;;;;;;;;15.70;99.90;;;;;;1876374;76;20245;-72
2021/08/12 04:05:42;;;;;;;;;;;15.60;99.90;;;;;;1877822;75;20294;-72
2021/08/12 04:08:12;;;;;;;;;;;15.50;99.90;;;;;;1886003;76;20268;-72
2021/08/12 04:10:37;;;;;;;;;;;15.50;99.90;;;;;;1880644;75;20479;-72
2021/08/12 04:13:04;;;;;;;;;;;15.40;99.90;;;;;;1877702;76;20190;-73
2021/08/12 04:15:31;;;;;;;;;;;15.40;99.90;;;;;;1883883;75;20203;-72
2021/08/12 04:17:58;;;;;;;;;;;15.40;99.90;;;;;;1881472;75;20449;-72
2021/08/12 04:20:25;;;;;;;;;;;15.50;99.90;;;;;;1876979;75;20151;-72
2021/08/12 04:22:51;;;;;;;;;;;15.50;99.90;;;;;;1874234;76;20676;-72
2021/08/12 04:25:18;;;;;;;;;;;15.50;99.90;;;;;;1878721;75;20190;-72
2021/08/12 04:27:45;;;;;;;;;;;15.50;99.90;;;;;;1882796;75;20274;-72
2021/08/12 04:30:12;;;;;;;;;;;15.50;99.90;;;;;;1878451;75;20668;-73
2021/08/12 04:32:39;;;;;;;;;;;15.50;99.90;;;;;;1884356;75;20187;-73
2021/08/12 04:35:07;;;;;;;;;;;15.50;99.90;;;;;;1883164;75;20543;-72
2021/08/12 04:37:45;;;;;;;;;;;15.60;99.90;;;;;;1879232;75;20478;-72
2021/08/12 04:40:18;;;;;;;;;;;15.50;99.90;;;;;;1883247;75;20211;-72
2021/08/12 04:42:47;;;;;;;;;;;15.50;99.90;;;;;;1883958;75;20217;-72
2021/08/12 04:45:14;;;;;;;;;;;15.50;99.90;;;;;;1878997;76;20201;-73
2021/08/12 04:47:46;;;;;;;;;;;15.50;99.90;;;;;;1887855;75;20485;-72
2021/08/12 04:50:10;;;;;;;;;;;15.50;99.90;;;;;;1882552;75;20176;-73
2021/08/12 04:52:39;;;;;;;;;;;15.60;99.90;;;;;;1884399;75;20164;-73
2021/08/12 04:55:07;;;;;;;;;;;15.60;99.90;;;;;;1881024;75;20178;-73
2021/08/12 04:57:34;;;;;;;;;;;15.70;99.90;;;;;;1883539;75;20171;-72
2021/08/12 05:00:01;;;;;;;;;;;15.70;99.90;;;;;;1880930;75;20167;-72
2021/08/12 05:02:28;;;;;;;;;;;15.70;99.90;;;;;;1876390;75;20174;-72
2021/08/12 05:04:55;;;;;;;;;;;15.80;99.90;;;;;;1894479;75;20213;-72
2021/08/12 05:07:22;;;;;;;;;;;15.70;99.90;;;;;;1883707;75;20243;-72
2021/08/12 05:09:49;;;;;;;;;;;15.80;99.90;;;;;;1866164;75;20216;-72
2021/08/12 05:12:19;;;;;;;;;;;15.90;99.90;;;;;;1860333;76;20122;-71
2021/08/12 05:14:46;;;;;;;;;;;16.00;99.90;;;;;;1879125;75;20285;-71
2021/08/12 05:17:13;;;;;;;;;;;16.00;99.90;;;;;;1878378;75;20417;-71
2021/08/12 05:19:40;;;;;;;;;;;16.00;99.90;;;;;;1882815;75;20190;-71
2021/08/12 05:22:07;;;;;;;;;;;16.00;99.90;;;;;;1880004;75;20234;-72
2021/08/12 05:24:34;;;;;;;;;;;16.10;99.90;;;;;;1882490;75;20159;-72
2021/08/12 05:27:01;;;;;;;;;;;16.20;99.90;;;;;;1877092;75;20248;-71
2021/08/12 05:29:27;;;;;;;;;;;16.20;99.90;;;;;;1855123;75;20227;-73
2021/08/12 05:31:54;;;;;;;;;;;16.30;99.90;;;;;;1871643;75;20177;-72
2021/08/12 05:34:21;;;;;;;;;;;16.30;99.90;;;;;;1869088;75;20159;-72
2021/08/12 05:36:48;;;;;;;;;;;16.30;99.90;;;;;;1886272;76;20171;-72
2021/08/12 05:39:15;;;;;;;;;;;16.30;99.90;;;;;;1876432;75;20160;-72
2021/08/12 05:41:41;;;;;;;;;;;16.30;99.90;;;;;;1870030;76;20865;-71
2021/08/12 05:44:08;;;;;;;;;;;16.30;99.90;;;;;;1871235;75;20212;-72
2021/08/12 05:46:35;;;;;;;;;;;16.30;99.90;;;;;;1884408;75;20500;-71
2021/08/12 05:49:02;;;;;;;;;;;16.30;99.90;;;;;;1872005;76;20155;-71
2021/08/12 05:51:31;;;;;;;;;;;16.30;99.90;;;;;;1875560;75;20527;-71
2021/08/12 05:53:57;;;;;;;;;;;16.40;99.90;;;;;;1874768;73;20171;-71
2021/08/12 05:56:24;;;;;;;;;;;16.50;99.90;;;;;;1893221;74;20179;-71
2021/08/12 05:58:51;;;;;;;;;;;16.50;99.90;;;;;;1893668;75;20160;-72
2021/08/12 06:01:18;;;;;;;;;;;16.70;99.90;;;;;;1881599;75;20203;-70
2021/08/12 06:03:44;;;;;;;;;;;16.70;99.90;;;;;;1878469;75;20198;-71
2021/08/12 06:06:11;;;;;;;;;;;16.80;99.90;;;;;;1880013;75;20201;-71
2021/08/12 06:08:38;;;;;;;;;;;16.80;99.90;;;;;;1870903;75;20185;-71
2021/08/12 06:11:05;;;;;;;;;;;16.90;99.90;;;;;;1884896;74;20187;-71
2021/08/12 06:13:32;;;;;;;;;;;16.90;99.90;;;;;;1880834;75;20254;-71
2021/08/12 06:16:01;;;;;;;;;;;16.90;99.90;;;;;;1884991;75;20548;-71
2021/08/12 06:18:28;;;;;;;;;;;17.00;99.90;;;;;;1905763;75;20169;-71
2021/08/12 06:20:56;;;;;;;;;;;17.00;99.90;;;;;;1871324;75;20191;-71
2021/08/12 06:23:22;;;;;;;;;;;17.00;99.90;;;;;;1883391;75;20144;-71
2021/08/12 06:25:49;;;;;;;;;;;17.00;99.90;;;;;;1881373;75;20203;-74
2021/08/12 06:28:16;;;;;;;;;;;17.00;99.90;;;;;;1897682;75;20231;-70
2021/08/12 06:30:44;;;;;;;;;;;17.00;99.90;;;;;;1897478;73;20273;-69
2021/08/12 06:33:10;;;;;;;;;;;17.10;99.90;;;;;;1877409;75;20182;-71
2021/08/12 06:35:37;;;;;;;;;;;17.10;99.90;;;;;;1882200;75;20171;-69
2021/08/12 06:38:06;;;;;;;;;;;17.20;99.90;;;;;;1882816;75;20477;-69
2021/08/12 06:40:33;;;;;;;;;;;17.20;99.90;;;;;;1882351;75;20175;-70
2021/08/12 06:43:00;;;;;;;;;;;17.20;99.90;;;;;;1888039;75;20167;-69
2021/08/12 06:45:27;;;;;;;;;;;17.30;99.90;;;;;;1881884;75;20179;-70
2021/08/12 06:47:54;;;;;;;;;;;17.30;99.90;;;;;;1881827;75;20219;-69
2021/08/12 06:50:22;;;;;;;;;;;17.30;99.90;;;;;;1879057;75;20203;-68
2021/08/12 06:52:49;;;;;;;;;;;17.40;99.90;;;;;;1883449;75;20188;-70
2021/08/12 06:55:16;;;;;;;;;;;17.40;99.90;;;;;;1873759;75;20231;-69
2021/08/12 06:57:42;;;;;;;;;;;17.50;99.90;;;;;;1878926;75;20113;-69
2021/08/12 07:00:10;;;;;;;;;;;17.50;99.90;;;;;;1875157;75;20188;-68
2021/08/12 07:02:37;;;;;;;;;;;17.50;99.90;;;;;;1882932;75;20304;-69
2021/08/12 07:05:04;;;;;;;;;;;17.60;99.90;;;;;;1879370;75;20253;-69
2021/08/12 07:07:30;;;;;;;;;;;17.70;99.90;;;;;;1880382;75;20212;-70
2021/08/12 07:09:57;;;;;;;;;;;17.70;99.90;;;;;;1875907;75;20167;-69
2021/08/12 07:12:24;;;;;;;;;;;17.70;99.90;;;;;;1887904;75;20283;-69
2021/08/12 07:14:51;;;;;;;;;;;17.80;99.90;;;;;;1884692;76;20387;-70
2021/08/12 07:17:18;;;;;;;;;;;17.90;99.90;;;;;;1884005;75;20144;-69
2021/08/12 07:19:45;;;;;;;;;;;18.00;99.90;;;;;;1883302;75;20193;-69
2021/08/12 07:22:11;;;;;;;;;;;18.10;99.90;;;;;;1885120;73;20132;-69
2021/08/12 07:24:38;;;;;;;;;;;18.20;99.90;;;;;;1884616;75;20329;-70
2021/08/12 07:27:05;;;;;;;;;;;18.20;99.90;;;;;;1884877;75;20440;-69
2021/08/12 07:29:32;;;;;;;;;;;18.20;99.90;;;;;;1883812;75;20131;-69
2021/08/12 07:31:59;;;;;;;;;;;18.30;99.90;;;;;;1885386;75;20296;-69
2021/08/12 07:34:25;;;;;;;;;;;18.30;99.90;;;;;;1884240;75;20131;-69
2021/08/12 07:36:52;;;;;;;;;;;18.40;99.90;;;;;;1878239;76;20282;-69
2021/08/12 07:39:19;;;;;;;;;;;18.40;99.90;;;;;;1884159;75;20192;-70
2021/08/12 07:41:46;;;;;;;;;;;18.40;99.90;;;;;;1909919;75;20177;-68
2021/08/12 07:44:14;;;;;;;;;;;18.50;99.90;;;;;;1891264;75;20167;-68
2021/08/12 07:46:41;;;;;;;;;;;18.50;99.90;;;;;;1877949;76;20187;-68
2021/08/12 07:49:08;;;;;;;;;;;18.50;99.90;;;;;;1888469;75;20159;-68
2021/08/12 07:51:34;;;;;;;;;;;18.50;99.90;;;;;;1884010;75;20167;-69
2021/08/12 07:54:01;;;;;;;;;;;18.50;99.90;;;;;;1867779;76;20169;-68
2021/08/12 07:56:28;;;;;;;;;;;18.60;99.90;;;;;;1860489;75;20168;-69
2021/08/12 07:58:55;;;;;;;;;;;18.70;99.90;;;;;;1884841;75;20152;-68
2021/08/12 08:01:22;;;;;;;;;;;18.80;99.90;;;;;;1909790;73;20429;-69
2021/08/12 08:03:49;;;;;;;;;;;18.90;99.90;;;;;;1884007;75;20254;-68
2021/08/12 08:06:15;;;;;;;;;;;18.90;99.90;;;;;;1882337;75;20183;-69
2021/08/12 08:08:42;;;;;;;;;;;18.90;99.90;;;;;;1885916;75;20175;-71
2021/08/12 08:11:09;;;;;;;;;;;19.00;99.90;;;;;;1879939;75;20167;-69
2021/08/12 08:13:36;;;;;;;;;;;19.00;99.90;;;;;;1883502;75;20183;-70
2021/08/12 08:16:03;;;;;;;;;;;19.10;99.90;;;;;;1881516;76;20233;-69
2021/08/12 08:18:30;;;;;;;;;;;19.20;99.90;;;;;;1905044;75;20201;-70
2021/08/12 08:20:56;;;;;;;;;;;19.10;99.90;;;;;;1894712;74;20490;-70
2021/08/12 08:23:23;;;;;;;;;;;19.10;99.90;;;;;;1901934;75;20184;-70
2021/08/12 08:25:50;;;;;;;;;;;19.10;99.90;;;;;;1883930;76;20167;-70
2021/08/12 08:28:17;;;;;;;;;;;19.20;99.90;;;;;;1886501;75;20855;-69
2021/08/12 08:30:44;;;;;;;;;;;19.20;99.90;;;;;;1852655;76;20232;-69
2021/08/12 08:33:14;;;;;;;;;;;19.30;99.90;;;;;;1853814;75;20232;-69
2021/08/12 08:35:40;;;;;;;;;;;19.40;99.90;;;;;;1884730;75;20190;-69
2021/08/12 08:38:07;;;;;;;;;;;19.40;99.90;;;;;;1891153;75;20177;-69
2021/08/12 08:40:34;;;;;;;;;;;19.40;99.90;;;;;;1884366;76;20183;-70
2021/08/12 08:43:02;;;;;;;;;;;19.40;99.90;;;;;;1914240;71;20444;-66
2021/08/12 08:45:29;;;;;;;;;;;19.40;99.90;;;;;;1970088;71;20581;-66
2021/08/12 08:47:57;;;;;;;;;;;19.60;99.90;;;;;;1969568;73;20485;-66
2021/08/12 08:50:31;;;;;;;;;;;19.60;99.90;;;;;;1969362;71;20564;-66
2021/08/12 08:52:56;;;;;;;;;;;19.80;99.90;;;;;;1969539;71;20162;-66
2021/08/12 08:55:23;;;;;;;;;;;19.70;99.90;;;;;;1969664;71;20186;-66
2021/08/12 08:57:51;;;;;;;;;;;19.90;99.90;;;;;;1969405;73;20465;-66
2021/08/12 09:00:18;;;;;;;;;;;20.00;99.90;;;;;;1968450;71;20506;-66
2021/08/12 09:02:46;;;;;;;;;;;19.90;99.90;;;;;;1965870;72;20434;-66
2021/08/12 09:05:14;;;;;;;;;;;19.90;99.90;;;;;;1967178;71;20495;-65
2021/08/12 09:07:41;;;;;;;;;;;20.00;99.90;;;;;;1968996;73;20475;-66
2021/08/12 09:10:08;;;;;;;;;;;20.00;99.90;;;;;;1993085;71;20485;-66
2021/08/12 09:12:36;;;;;;;;;;;20.20;99.90;;;;;;2005810;70;20156;-66
2021/08/12 09:15:11;;;;;;;;;;;20.20;99.90;;;;;;2003767;71;20198;-66
2021/08/12 09:17:38;;;;;;;;;;;20.20;99.90;;;;;;1998149;71;20189;-66
2021/08/12 09:20:06;;;;;;;;;;;20.40;99.90;;;;;;1967819;71;20220;-66
2021/08/12 09:22:50;;;;;;;;;;;20.50;99.90;;;;;;1956634;71;20174;-65
2021/08/12 09:25:34;;;;;;;;;;;20.50;99.90;;;;;;1972657;71;20443;-66
2021/08/12 09:28:11;;;;;;;;;;;20.70;99.90;;;;;;1967373;71;20172;-65
2021/08/12 09:30:38;;;;;;;;;;;20.70;99.90;;;;;;1983351;71;20197;-66
2021/08/12 09:33:04;;;;;;;;;;;20.60;99.90;;;;;;1966818;71;20497;-66
2021/08/12 09:35:31;;;;;;;;;;;20.60;99.90;;;;;;1969408;73;20154;-66
2021/08/12 09:38:08;;;;;;;;;;;20.70;99.90;;;;;;1988736;71;20156;-66
2021/08/12 09:40:35;;;;;;;;;;;20.80;99.90;;;;;;1968123;73;20170;-66
2021/08/12 09:43:03;;;;;;;;;;;21.00;99.90;;;;;;1965615;72;20273;-67
2021/08/12 09:45:31;;;;;;;;;;;21.00;99.90;;;;;;1969695;71;20170;-66
2021/08/12 09:48:04;;;;;;;;;;;21.00;99.90;;;;;;1999664;71;20121;-66
2021/08/12 09:50:31;;;;;;;;;;;21.10;99.90;;;;;;2004760;71;20391;-66
2021/08/12 09:52:57;;;;;;;;;;;21.20;99.90;;;;;;1963156;70;20113;-66
2021/08/12 09:55:24;;;;;;;;;;;21.20;99.90;;;;;;1964218;71;20159;-66
2021/08/12 09:57:52;;;;;;;;;;;21.30;99.90;;;;;;1990925;71;20429;-66
2021/08/12 10:00:23;;;;;;;;;;;21.30;99.90;;;;;;2001336;71;20194;-66
2021/08/12 10:02:50;;;;;;;;;;;21.30;99.90;;;;;;1985158;70;20197;-66
2021/08/12 10:05:17;;;;;;;;;;;21.40;99.90;;;;;;2002025;71;20153;-66
2021/08/12 10:07:47;;;;;;;;;;;21.40;99.90;;;;;;1935663;74;20168;-66
2021/08/12 10:10:19;;;;;;;;;;;21.50;99.90;;;;;;1980384;71;20550;-66
2021/08/12 10:12:50;;;;;;;;;;;21.50;99.90;;;;;;1984863;70;20117;-66
2021/08/12 10:15:21;;;;;;;;;;;21.50;99.90;;;;;;2006310;71;20176;-66
2021/08/12 10:17:48;;;;;;;;;;;21.60;99.90;;;;;;1988187;71;20134;-66
2021/08/12 10:20:17;;;;;;;;;;;21.70;99.90;;;;;;1974947;72;20189;-66
2021/08/12 10:22:45;;;;;;;;;;;21.70;99.90;;;;;;1980580;70;20156;-66
2021/08/12 10:25:13;;;;;;;;;;;21.80;99.90;;;;;;1970637;71;20112;-66
2021/08/12 10:27:41;;;;;;;;;;;22.00;99.90;;;;;;1978482;71;20164;-66
2021/08/12 10:30:08;;;;;;;;;;;22.20;99.90;;;;;;1977120;71;20475;-66
2021/08/12 10:32:37;;;;;;;;;;;22.20;99.90;;;;;;1983111;71;20169;-66
2021/08/12 10:35:04;;;;;;;;;;;22.10;99.90;;;;;;1957817;73;20175;-66
2021/08/12 10:37:31;;;;;;;;;;;22.10;99.90;;;;;;1969360;71;20146;-66
2021/08/12 10:39:59;;;;;;;;;;;22.20;99.90;;;;;;1968909;73;20443;-66
2021/08/12 10:42:26;;;;;;;;;;;22.30;99.90;;;;;;1996811;70;20125;-66
2021/08/12 10:44:53;;;;;;;;;;;22.40;99.90;;;;;;2002231;70;20113;-68
2021/08/12 10:47:41;;;;;;;;;;;22.40;99.90;;;;;;1961465;73;20123;-68
2021/08/12 10:50:26;;;;;;;;;;;22.40;99.90;;;;;;1969351;73;20424;-68
2021/08/12 10:53:07;;;;;;;;;;;22.50;99.90;;;;;;1968768;73;20112;-68
2021/08/12 10:55:34;;;;;;;;;;;22.60;99.90;;;;;;1975945;71;20105;-67
2021/08/12 10:58:23;;;;;;;;;;;22.60;99.90;;;;;;1985648;71;20185;-67
2021/08/12 11:00:50;;;;;;;;;;;22.60;99.90;;;;;;1968237;72;20174;-67
2021/08/12 11:03:34;;;;;;;;;;;22.80;99.90;;;;;;1976630;71;20174;-67
2021/08/12 11:06:07;;;;;;;;;;;22.70;99.90;;;;;;2002568;71;20211;-67
2021/08/12 11:08:54;;;;;;;;;;;22.70;99.90;;;;;;1935634;74;20113;-66
2021/08/12 11:11:25;;;;;;;;;;;22.70;99.90;;;;;;1956715;71;20178;-66
2021/08/12 11:13:56;;;;;;;;;;;22.80;99.90;;;;;;1981750;71;20159;-66
2021/08/12 11:16:27;;;;;;;;;;;22.80;99.90;;;;;;1964997;71;20204;-66
2021/08/12 11:18:55;;;;;;;;;;;22.80;99.90;;;;;;1985942;71;20160;-66
2021/08/12 11:21:29;;;;;;;;;;;22.70;99.90;;;;;;2003940;71;20202;-66
2021/08/12 11:24:10;;;;;;;;;;;22.90;99.90;;;;;;1983626;70;20212;-66
2021/08/12 11:26:44;;;;;;;;;;;22.80;99.90;;;;;;1976001;71;20154;-66
2021/08/12 11:29:21;;;;;;;;;;;22.90;99.90;;;;;;2002676;71;20117;-66
2021/08/12 11:31:50;;;;;;;;;;;22.90;99.90;;;;;;1991910;71;20194;-66
2021/08/12 11:34:35;;;;;;;;;;;22.90;99.90;;;;;;1988533;71;20178;-66
2021/08/12 11:37:15;;;;;;;;;;;23.10;99.90;;;;;;1969890;73;20201;-67
2021/08/12 11:39:53;;;;;;;;;;;23.10;99.90;;;;;;1949102;71;20170;-66
2021/08/12 11:42:30;;;;;;;;;;;23.00;99.90;;;;;;1963483;71;20269;-67
2021/08/12 11:44:58;;;;;;;;;;;23.10;99.90;;;;;;1966815;71;20159;-66
2021/08/12 11:47:25;;;;;;;;;;;23.20;99.90;;;;;;1998403;71;20124;-66
2021/08/12 11:49:53;;;;;;;;;;;23.20;99.90;;;;;;1982055;71;20216;-65
2021/08/12 11:52:22;;;;;;;;;;;23.10;99.90;;;;;;1974468;71;20206;-66
2021/08/12 11:54:56;;;;;;;;;;;23.20;99.90;;;;;;1969456;71;20531;-67
2021/08/12 11:57:39;;;;;;;;;;;23.30;99.90;;;;;;1965448;71;20174;-66
2021/08/12 12:00:10;;;;;;;;;;;23.10;99.90;;;;;;1954702;71;20143;-66
2021/08/12 12:02:38;;;;;;;;;;;23.00;99.90;;;;;;1998476;70;20222;-66
2021/08/12 12:05:07;;;;;;;;;;;23.10;99.90;;;;;;1974110;71;20204;-66
2021/08/12 12:07:44;;;;;;;;;;;23.30;99.90;;;;;;1992617;71;20165;-66
2021/08/12 12:10:11;;;;;;;;;;;23.50;99.90;;;;;;1989309;71;20838;-66
2021/08/12 12:12:37;;;;;;;;;;;23.70;99.90;;;;;;1983366;71;20186;-66
2021/08/12 12:15:04;;;;;;;;;;;23.70;99.90;;;;;;1967386;71;20176;-65
2021/08/12 12:17:33;;;;;;;;;;;23.70;99.90;;;;;;1960600;71;20166;-66
2021/08/12 12:20:10;;;;;;;;;;;23.80;99.90;;;;;;1969013;73;20158;-66
2021/08/12 12:22:39;;;;;;;;;;;23.80;99.90;;;;;;1966026;71;20159;-66
2021/08/12 12:25:07;;;;;;;;;;;23.70;99.90;;;;;;1982150;71;20131;-65
2021/08/12 12:27:34;;;;;;;;;;;23.80;99.90;;;;;;1976996;71;20533;-66
2021/08/12 12:30:06;;;;;;;;;;;23.90;99.90;;;;;;1979457;71;20161;-68
2021/08/12 12:32:32;;;;;;;;;;;23.90;99.90;;;;;;1977278;71;20259;-66
2021/08/12 12:35:04;;;;;;;;;;;24.00;99.90;;;;;;1979443;71;20146;-66
2021/08/12 12:37:28;;;;;;;;;;;24.30;99.90;;;;;;1969960;73;20189;-66
2021/08/12 12:39:55;;;;;;;;;;;24.20;99.90;;;;;;1968566;71;20153;-65
2021/08/12 12:42:21;;;;;;;;;;;24.10;99.90;;;;;;1959348;71;20614;-66
2021/08/12 12:44:58;;;;;;;;;;;24.20;99.90;;;;;;1986889;71;20397;-66
2021/08/12 12:47:25;;;;;;;;;;;24.20;99.90;;;;;;2003239;71;20525;-66
2021/08/12 12:49:54;;;;;;;;;;;24.00;99.90;;;;;;1978966;71;20443;-66
2021/08/12 12:52:20;;;;;;;;;;;24.30;99.90;;;;;;1971486;71;20154;-66
2021/08/12 12:54:48;;;;;;;;;;;24.20;99.90;;;;;;1968473;73;20463;-65
2021/08/12 12:57:16;;;;;;;;;;;24.20;99.90;;;;;;1990005;71;20527;-66
2021/08/12 12:59:45;;;;;;;;;;;24.10;99.90;;;;;;1959809;73;20178;-66
2021/08/12 13:02:13;;;;;;;;;;;24.10;99.90;;;;;;1971357;70;20476;-66
2021/08/12 13:04:40;;;;;;;;;;;23.90;99.90;;;;;;1969752;71;20170;-65
2021/08/12 13:07:09;;;;;;;;;;;23.70;99.90;;;;;;1969382;73;20465;-65
2021/08/12 13:09:40;;;;;;;;;;;23.70;99.90;;;;;;1980002;71;20485;-65
2021/08/12 13:12:26;;;;;;;;;;;23.90;99.90;;;;;;1974935;71;20300;-66
2021/08/12 13:14:55;;;;;;;;;;;24.20;99.90;;;;;;1967952;73;20293;-67
2021/08/12 13:17:31;;;;;;;;;;;24.20;99.90;;;;;;1959965;71;20154;-70
2021/08/12 13:20:14;;;;;;;;;;;24.30;99.90;;;;;;1969291;71;20479;-71
2021/08/12 13:22:42;;;;;;;;;;;24.30;99.90;;;;;;1956872;71;20198;-67
2021/08/12 13:25:16;;;;;;;;;;;24.50;99.90;;;;;;1979522;71;20847;-67
2021/08/12 13:27:44;;;;;;;;;;;24.60;99.90;;;;;;1974962;71;20161;-66
2021/08/12 13:30:11;;;;;;;;;;;24.60;99.90;;;;;;1965505;73;20127;-66
2021/08/12 13:32:38;;;;;;;;;;;24.30;99.90;;;;;;1966612;72;20162;-68
2021/08/12 13:35:05;;;;;;;;;;;24.30;99.90;;;;;;1966296;72;20401;-67
2021/08/12 13:37:32;;;;;;;;;;;24.10;99.90;;;;;;1964879;73;20204;-67
2021/08/12 13:39:59;;;;;;;;;;;24.20;99.90;;;;;;1984125;71;20181;-67
2021/08/12 13:42:26;;;;;;;;;;;24.10;99.90;;;;;;1969242;72;20216;-69
2021/08/12 13:44:53;;;;;;;;;;;24.30;99.90;;;;;;1975388;71;20206;-69
2021/08/12 13:47:20;;;;;;;;;;;24.50;99.90;;;;;;1969919;71;20166;-68
2021/08/12 13:49:46;;;;;;;;;;;24.60;99.90;;;;;;1971354;71;20225;-69
2021/08/12 13:52:22;;;;;;;;;;;24.40;99.90;;;;;;1966124;71;20365;-70
2021/08/12 13:54:49;;;;;;;;;;;24.30;99.90;;;;;;1969883;71;20561;-69
2021/08/12 13:57:16;;;;;;;;;;;24.50;99.90;;;;;;1964818;73;20170;-69
2021/08/12 13:59:43;;;;;;;;;;;24.60;99.90;;;;;;1965414;73;20197;-69
2021/08/12 14:02:10;;;;;;;;;;;24.80;99.90;;;;;;1965335;72;20451;-69
2021/08/12 14:04:37;;;;;;;;;;;24.50;99.90;;;;;;1986234;71;20161;-69
2021/08/12 14:07:04;;;;;;;;;;;24.40;99.90;;;;;;2005465;71;20149;-69
2021/08/12 14:09:31;;;;;;;;;;;24.60;99.90;;;;;;2005789;71;20176;-69
2021/08/12 14:11:58;;;;;;;;;;;24.70;99.90;;;;;;1985412;71;20517;-69
2021/08/12 14:14:24;;;;;;;;;;;24.70;99.90;;;;;;1969631;73;20206;-69
2021/08/12 14:16:51;;;;;;;;;;;24.80;99.90;;;;;;1953074;71;20458;-69
2021/08/12 14:19:18;;;;;;;;;;;25.00;99.90;;;;;;1954120;73;20175;-68
2021/08/12 14:21:45;;;;;;;;;;;24.80;99.90;;;;;;1969765;73;20147;-68
2021/08/12 14:24:12;;;;;;;;;;;24.80;99.90;;;;;;1969665;71;20854;-68